Smearney, Arkansas
Current Conditions -  °F | °C
As of 7:53 PM on Wednesday 17 Dec 2014 (Local Time) from KLLQ Reporting Station
Overcast Overcast  
Wind Chill: 38°   Ceiling: 8000
Heat Index: 43°   Visibility: 10mi
Dew Point: 35°   Wind: 8mph
Humidity: 74%   Direction: 50°NE
Pressure: 30.22"   Gusts: NA
Location:  33.37°N, 92.1129°W
Report Text: KLLQ 180153Z AUTO 05007KT 10SM BKN080 OVC110 06/02 A3022 RMK AO2 SLP234 T00610017
Loading
Personal Weather Stations






























Interactive Weather Map New forecast layout! Learn more

10-Day Weather Forecast

Advertisements
Track Severe Weather on mobile